Für Piloten

Informationen für Piloten zum Flugplatz Borken-Hoxfeld
Hier findest Du alle relevanten Informationen, die Du als Pilot benötigst, um Borken-Hoxfeld anzufliegen.

Flugplatz: Borken-Hoxfeld ICAO-Code: EDLY
Borken-Hoxfeld Info: 122,925 Mhz
GAFOR Gebiet: 32
Platzrunde: Motorflug; -> Südplatzrunde; Segelflug; -> Nordplatzrunde;
Landegebühr: z.Zt. 5,00 Euro
Platzhöhe: 48m üMSL
Pisten: 12/30 – 740 m x 30 m, GRAS
Betriebszeiten: PPR (in den Sommermonaten Mittagspause beachten)

 

Wetterforecast:

Available data for EDDL from the past 2 hours
DUESSELDORF
Metar
EDDL 181050Z 22011KT 190V250 9999 FEW028 BKN036 21/13 Q1020 NOSIG

10:50 UTC

Wind: 220° 11kt

Visibility: 9999 m

Sky: FEW 2800 ft

Temp: 21 deg C / 69.8 deg F

Dewpoint: 13 deg C / 55.4 deg F

Pressure: 1020 hPa

TAF
TAF EDDL 180500Z 1806/1912 18010KT 9999 BKN040 BECMG 1810/1813 24012KT BECMG 1818/1820 22006KT PROB40 TEMPO 1907/1910 BKN013

Alle obigen Informationen ersetzen nicht die vorgeschriebene, persönliche Flugvorbereitung.